sensor_id;sensor_type;location;lat;lon;timestamp;pressure;altitude;pressure_sealevel;temperature;humidity
74370;BME280;71062;44.520;11.342;2024-02-26T00:01:52;100265.03;;;9.60;71.28
74370;BME280;71062;44.520;11.342;2024-02-26T00:04:18;100265.88;;;9.60;71.32
74370;BME280;71062;44.520;11.342;2024-02-26T00:06:43;100265.28;;;9.63;71.20
74370;BME280;71062;44.520;11.342;2024-02-26T00:09:09;100266.44;;;9.57;71.31
74370;BME280;71062;44.520;11.342;2024-02-26T00:11:36;100265.31;;;9.48;71.07
74370;BME280;71062;44.520;11.342;2024-02-26T00:14:03;100254.69;;;9.45;71.64
74370;BME280;71062;44.520;11.342;2024-02-26T00:16:28;100262.81;;;9.47;71.15
74370;BME280;71062;44.520;11.342;2024-02-26T00:18:54;100266.16;;;9.54;70.42
74370;BME280;71062;44.520;11.342;2024-02-26T00:21:19;100262.25;;;9.55;70.29
74370;BME280;71062;44.520;11.342;2024-02-26T00:23:46;100259.72;;;9.53;70.11
74370;BME280;71062;44.520;11.342;2024-02-26T00:26:11;100265.34;;;9.53;70.17
74370;BME280;71062;44.520;11.342;2024-02-26T00:28:37;100250.16;;;9.54;69.53
74370;BME280;71062;44.520;11.342;2024-02-26T00:31:03;100259.13;;;9.61;69.21
74370;BME280;71062;44.520;11.342;2024-02-26T00:33:29;100240.63;;;9.55;69.44
74370;BME280;71062;44.520;11.342;2024-02-26T00:35:54;100249.03;;;9.65;69.55
74370;BME280;71062;44.520;11.342;2024-02-26T00:38:20;100242.91;;;9.53;70.28
74370;BME280;71062;44.520;11.342;2024-02-26T00:40:45;100234.47;;;9.48;70.20
74370;BME280;71062;44.520;11.342;2024-02-26T00:43:11;100222.06;;;9.64;68.48
74370;BME280;71062;44.520;11.342;2024-02-26T00:45:37;100222.03;;;9.69;67.84
74370;BME280;71062;44.520;11.342;2024-02-26T00:48:02;100219.47;;;9.83;67.26
74370;BME280;71062;44.520;11.342;2024-02-26T00:50:37;100211.84;;;9.88;66.08
74370;BME280;71062;44.520;11.342;2024-02-26T00:53:03;100209.28;;;9.97;66.11
74370;BME280;71062;44.520;11.342;2024-02-26T00:55:28;100207.59;;;9.96;65.56
74370;BME280;71062;44.520;11.342;2024-02-26T00:57:54;100206.50;;;9.92;64.91
74370;BME280;71062;44.520;11.342;2024-02-26T01:00:20;100201.72;;;9.92;65.29
74370;BME280;71062;44.520;11.342;2024-02-26T01:02:46;100196.69;;;9.89;66.19
74370;BME280;71062;44.520;11.342;2024-02-26T01:05:14;100191.41;;;9.83;66.79
74370;BME280;71062;44.520;11.342;2024-02-26T01:07:41;100195.63;;;9.80;67.32
74370;BME280;71062;44.520;11.342;2024-02-26T01:10:07;100192.81;;;9.80;67.71
74370;BME280;71062;44.520;11.342;2024-02-26T01:12:33;100192.28;;;9.73;69.49
74370;BME280;71062;44.520;11.342;2024-02-26T01:14:59;100187.56;;;9.69;68.61
74370;BME280;71062;44.520;11.342;2024-02-26T01:17:25;100186.66;;;9.78;71.16
74370;BME280;71062;44.520;11.342;2024-02-26T01:19:50;100179.41;;;9.72;68.89
74370;BME280;71062;44.520;11.342;2024-02-26T01:22:16;100190.63;;;9.72;69.25
74370;BME280;71062;44.520;11.342;2024-02-26T01:24:41;100190.03;;;9.75;69.65
74370;BME280;71062;44.520;11.342;2024-02-26T01:27:07;100185.56;;;9.69;69.26
74370;BME280;71062;44.520;11.342;2024-02-26T01:29:34;100186.22;;;9.56;69.89
74370;BME280;71062;44.520;11.342;2024-02-26T01:32:00;100175.44;;;9.73;71.23
74370;BME280;71062;44.520;11.342;2024-02-26T01:34:25;100172.16;;;9.61;70.03
74370;BME280;71062;44.520;11.342;2024-02-26T01:36:50;100160.38;;;9.59;70.77
74370;BME280;71062;44.520;11.342;2024-02-26T01:39:16;100155.78;;;9.78;69.64
74370;BME280;71062;44.520;11.342;2024-02-26T01:41:41;100164.78;;;9.75;68.93
74370;BME280;71062;44.520;11.342;2024-02-26T01:44:07;100154.63;;;9.84;68.68
74370;BME280;71062;44.520;11.342;2024-02-26T01:46:34;100161.28;;;9.98;68.76
74370;BME280;71062;44.520;11.342;2024-02-26T01:49:02;100144.94;;;10.05;67.19
74370;BME280;71062;44.520;11.342;2024-02-26T01:51:29;100139.31;;;10.05;67.60
74370;BME280;71062;44.520;11.342;2024-02-26T01:53:56;100134.88;;;9.99;68.04
74370;BME280;71062;44.520;11.342;2024-02-26T01:56:23;100135.97;;;10.03;67.39
74370;BME280;71062;44.520;11.342;2024-02-26T01:58:53;100136.00;;;9.98;66.67
74370;BME280;71062;44.520;11.342;2024-02-26T02:01:21;100124.00;;;9.88;67.13
74370;BME280;71062;44.520;11.342;2024-02-26T02:03:47;100122.47;;;10.05;65.74
74370;BME280;71062;44.520;11.342;2024-02-26T02:06:13;100136.09;;;9.83;67.89
74370;BME280;71062;44.520;11.342;2024-02-26T02:08:39;100128.88;;;9.72;70.51
74370;BME280;71062;44.520;11.342;2024-02-26T02:11:06;100130.69;;;9.53;72.74
74370;BME280;71062;44.520;11.342;2024-02-26T02:13:31;100122.41;;;9.23;75.05
74370;BME280;71062;44.520;11.342;2024-02-26T02:15:57;100110.72;;;8.96;76.14
74370;BME280;71062;44.520;11.342;2024-02-26T02:18:22;100118.59;;;8.89;77.16
74370;BME280;71062;44.520;11.342;2024-02-26T02:20:48;100116.97;;;8.78;79.35
74370;BME280;71062;44.520;11.342;2024-02-26T02:23:13;100114.75;;;8.60;80.11
74370;BME280;71062;44.520;11.342;2024-02-26T02:25:39;100109.72;;;8.57;79.86
74370;BME280;71062;44.520;11.342;2024-02-26T02:28:05;100110.19;;;8.89;78.63
74370;BME280;71062;44.520;11.342;2024-02-26T02:30:31;100115.84;;;8.74;79.53
74370;BME280;71062;44.520;11.342;2024-02-26T02:32:58;100109.69;;;8.67;81.44
74370;BME280;71062;44.520;11.342;2024-02-26T02:35:24;100110.25;;;8.74;80.00
74370;BME280;71062;44.520;11.342;2024-02-26T02:37:54;100109.13;;;8.70;80.19
74370;BME280;71062;44.520;11.342;2024-02-26T02:40:20;100094.00;;;8.71;80.70
74370;BME280;71062;44.520;11.342;2024-02-26T02:42:45;100099.03;;;8.74;81.10
74370;BME280;71062;44.520;11.342;2024-02-26T02:45:11;100083.63;;;8.71;82.99
74370;BME280;71062;44.520;11.342;2024-02-26T02:47:36;100090.03;;;8.82;80.67
74370;BME280;71062;44.520;11.342;2024-02-26T02:50:03;100081.09;;;8.70;82.03
74370;BME280;71062;44.520;11.342;2024-02-26T02:52:29;100071.31;;;8.57;82.25
74370;BME280;71062;44.520;11.342;2024-02-26T02:54:54;100075.56;;;8.40;83.22
74370;BME280;71062;44.520;11.342;2024-02-26T02:57:20;100065.22;;;8.40;82.69
74370;BME280;71062;44.520;11.342;2024-02-26T02:59:46;100078.94;;;8.42;81.61
74370;BME280;71062;44.520;11.342;2024-02-26T03:02:12;100079.19;;;8.45;82.51
74370;BME280;71062;44.520;11.342;2024-02-26T03:04:37;100082.88;;;8.41;81.77
74370;BME280;71062;44.520;11.342;2024-02-26T03:07:03;100083.41;;;8.33;83.86
74370;BME280;71062;44.520;11.342;2024-02-26T03:09:28;100066.59;;;8.23;83.92
74370;BME280;71062;44.520;11.342;2024-02-26T03:11:54;100071.63;;;8.21;84.53
74370;BME280;71062;44.520;11.342;2024-02-26T03:14:20;100078.38;;;8.20;85.27
74370;BME280;71062;44.520;11.342;2024-02-26T03:16:45;100077.81;;;8.28;84.94
74370;BME280;71062;44.520;11.342;2024-02-26T03:19:14;100063.25;;;8.16;84.96
74370;BME280;71062;44.520;11.342;2024-02-26T03:21:40;100073.91;;;8.19;84.64
74370;BME280;71062;44.520;11.342;2024-02-26T03:24:06;100067.19;;;8.05;83.11
74370;BME280;71062;44.520;11.342;2024-02-26T03:26:35;100070.00;;;8.10;83.59
74370;BME280;71062;44.520;11.342;2024-02-26T03:29:01;100071.66;;;8.11;83.15
74370;BME280;71062;44.520;11.342;2024-02-26T03:31:28;100067.75;;;8.02;83.29
74370;BME280;71062;44.520;11.342;2024-02-26T03:33:53;100068.88;;;7.96;84.24
74370;BME280;71062;44.520;11.342;2024-02-26T03:36:19;100068.88;;;8.06;83.33
74370;BME280;71062;44.520;11.342;2024-02-26T03:38:45;100074.19;;;8.02;84.22
74370;BME280;71062;44.520;11.342;2024-02-26T03:41:11;100074.19;;;8.02;83.49
74370;BME280;71062;44.520;11.342;2024-02-26T03:43:37;100080.63;;;8.13;85.51
74370;BME280;71062;44.520;11.342;2024-02-26T03:46:02;100079.50;;;8.19;83.42
74370;BME280;71062;44.520;11.342;2024-02-26T03:48:28;100094.34;;;8.24;84.26
74370;BME280;71062;44.520;11.342;2024-02-26T03:50:54;100081.19;;;8.30;84.51
74370;BME280;71062;44.520;11.342;2024-02-26T03:53:19;100075.88;;;8.33;83.09
74370;BME280;71062;44.520;11.342;2024-02-26T03:55:45;100082.31;;;8.39;83.80
74370;BME280;71062;44.520;11.342;2024-02-26T03:58:12;100085.66;;;8.41;84.30
74370;BME280;71062;44.520;11.342;2024-02-26T04:00:38;100072.22;;;8.33;82.95
74370;BME280;71062;44.520;11.342;2024-02-26T04:03:04;100072.25;;;8.38;85.02
74370;BME280;71062;44.520;11.342;2024-02-26T04:05:29;100069.69;;;8.46;84.30
74370;BME280;71062;44.520;11.342;2024-02-26T04:07:58;100069.41;;;8.43;83.83
74370;BME280;71062;44.520;11.342;2024-02-26T04:10:26;100069.41;;;8.33;82.85
74370;BME280;71062;44.520;11.342;2024-02-26T04:12:52;100064.38;;;8.35;83.06
74370;BME280;71062;44.520;11.342;2024-02-26T04:15:18;100058.22;;;8.33;83.08
74370;BME280;71062;44.520;11.342;2024-02-26T04:17:43;100065.50;;;8.34;82.94
74370;BME280;71062;44.520;11.342;2024-02-26T04:20:14;100061.84;;;8.43;82.39
74370;BME280;71062;44.520;11.342;2024-02-26T04:22:41;100046.19;;;8.22;82.35
74370;BME280;71062;44.520;11.342;2024-02-26T04:25:07;100060.47;;;8.36;82.71
74370;BME280;71062;44.520;11.342;2024-02-26T04:27:32;100065.50;;;8.39;82.68
74370;BME280;71062;44.520;11.342;2024-02-26T04:29:58;100068.88;;;8.36;84.62
74370;BME280;71062;44.520;11.342;2024-02-26T04:32:24;100066.38;;;8.34;86.51
74370;BME280;71062;44.520;11.342;2024-02-26T04:34:50;100062.13;;;8.37;84.61
74370;BME280;71062;44.520;11.342;2024-02-26T04:37:15;100056.84;;;8.30;85.57
74370;BME280;71062;44.520;11.342;2024-02-26T04:39:41;100054.34;;;8.24;82.71
74370;BME280;71062;44.520;11.342;2024-02-26T04:42:06;100062.69;;;8.39;84.00
74370;BME280;71062;44.520;11.342;2024-02-26T04:44:32;100058.22;;;8.23;86.17
74370;BME280;71062;44.520;11.342;2024-02-26T04:46:58;100054.28;;;8.14;85.11
74370;BME280;71062;44.520;11.342;2024-02-26T04:49:24;100055.72;;;8.06;86.31
74370;BME280;71062;44.520;11.342;2024-02-26T04:51:49;100057.09;;;8.04;84.71
74370;BME280;71062;44.520;11.342;2024-02-26T04:54:15;100057.13;;;7.99;85.96
74370;BME280;71062;44.520;11.342;2024-02-26T04:56:43;100065.50;;;8.14;83.91
74370;BME280;71062;44.520;11.342;2024-02-26T04:59:10;100077.28;;;8.31;83.40
74370;BME280;71062;44.520;11.342;2024-02-26T05:01:35;100070.50;;;8.47;82.07
74370;BME280;71062;44.520;11.342;2024-02-26T05:04:02;100058.22;;;8.13;85.49
74370;BME280;71062;44.520;11.342;2024-02-26T05:06:29;100064.38;;;8.15;84.03
74370;BME280;71062;44.520;11.342;2024-02-26T05:08:54;100072.78;;;8.15;85.35
74370;BME280;71062;44.520;11.342;2024-02-26T05:11:20;100059.91;;;8.04;89.57
74370;BME280;71062;44.520;11.342;2024-02-26T05:13:48;100067.75;;;8.12;88.10
74370;BME280;71062;44.520;11.342;2024-02-26T05:16:13;100063.53;;;8.09;88.21
74370;BME280;71062;44.520;11.342;2024-02-26T05:18:38;100070.00;;;8.10;86.96
74370;BME280;71062;44.520;11.342;2024-02-26T05:21:04;100069.41;;;8.13;87.02
74370;BME280;71062;44.520;11.342;2024-02-26T05:23:30;100062.13;;;8.22;85.53
74370;BME280;71062;44.520;11.342;2024-02-26T05:25:56;100064.94;;;8.22;86.28
74370;BME280;71062;44.520;11.342;2024-02-26T05:28:21;100056.28;;;8.28;87.36
74370;BME280;71062;44.520;11.342;2024-02-26T05:30:47;100067.75;;;8.37;86.23
74370;BME280;71062;44.520;11.342;2024-02-26T05:33:13;100064.38;;;8.50;86.15
74370;BME280;71062;44.520;11.342;2024-02-26T05:35:39;100068.03;;;8.35;86.35
74370;BME280;71062;44.520;11.342;2024-02-26T05:38:05;100043.13;;;8.24;86.07
74370;BME280;71062;44.520;11.342;2024-02-26T05:40:31;100069.13;;;8.29;85.22
74370;BME280;71062;44.520;11.342;2024-02-26T05:42:57;100042.28;;;8.13;84.87
74370;BME280;71062;44.520;11.342;2024-02-26T05:45:22;100063.75;;;8.63;79.56
74370;BME280;71062;44.520;11.342;2024-02-26T05:47:48;100060.38;;;8.71;81.12
74370;BME280;71062;44.520;11.342;2024-02-26T05:50:15;100059.28;;;8.67;81.38
74370;BME280;71062;44.520;11.342;2024-02-26T05:52:42;100073.56;;;8.70;81.98
74370;BME280;71062;44.520;11.342;2024-02-26T05:55:08;100062.09;;;8.62;83.93
74370;BME280;71062;44.520;11.342;2024-02-26T05:57:34;100074.69;;;8.54;84.40
74370;BME280;71062;44.520;11.342;2024-02-26T06:00:00;100081.72;;;8.47;85.32
74370;BME280;71062;44.520;11.342;2024-02-26T06:02:32;100083.41;;;8.33;86.34
74370;BME280;71062;44.520;11.342;2024-02-26T06:04:57;100082.53;;;8.52;87.75
74370;BME280;71062;44.520;11.342;2024-02-26T06:07:23;100086.78;;;8.25;86.68
74370;BME280;71062;44.520;11.342;2024-02-26T06:09:49;100084.00;;;8.25;88.33
74370;BME280;71062;44.520;11.342;2024-02-26T06:12:14;100088.44;;;8.11;87.99
74370;BME280;71062;44.520;11.342;2024-02-26T06:14:42;100098.53;;;7.97;89.14
74370;BME280;71062;44.520;11.342;2024-02-26T06:17:08;100101.31;;;8.02;89.34
74370;BME280;71062;44.520;11.342;2024-02-26T06:19:34;100113.66;;;8.26;86.68
74370;BME280;71062;44.520;11.342;2024-02-26T06:21:59;100114.22;;;8.03;85.83
74370;BME280;71062;44.520;11.342;2024-02-26T06:24:25;100117.00;;;8.18;86.06
74370;BME280;71062;44.520;11.342;2024-02-26T06:26:50;100120.38;;;8.10;86.43
74370;BME280;71062;44.520;11.342;2024-02-26T06:29:16;100106.91;;;7.91;87.46
74370;BME280;71062;44.520;11.342;2024-02-26T06:31:42;100120.63;;;7.83;87.65
74370;BME280;71062;44.520;11.342;2024-02-26T06:34:08;100127.88;;;7.84;89.25
74370;BME280;71062;44.520;11.342;2024-02-26T06:36:34;100125.66;;;7.76;90.29
74370;BME280;71062;44.520;11.342;2024-02-26T06:39:00;100121.69;;;7.47;90.70
74370;BME280;71062;44.520;11.342;2024-02-26T06:41:25;100124.13;;;7.38;92.76
74370;BME280;71062;44.520;11.342;2024-02-26T06:43:56;100139.81;;;7.39;92.95
74370;BME280;71062;44.520;11.342;2024-02-26T06:46:22;100144.50;;;7.19;95.14
74370;BME280;71062;44.520;11.342;2024-02-26T06:48:49;100145.41;;;7.39;94.02
74370;BME280;71062;44.520;11.342;2024-02-26T06:51:15;100155.53;;;7.50;94.19
74370;BME280;71062;44.520;11.342;2024-02-26T06:53:40;100158.25;;;7.40;94.23
74370;BME280;71062;44.520;11.342;2024-02-26T06:56:06;100153.22;;;7.32;94.27
74370;BME280;71062;44.520;11.342;2024-02-26T06:58:32;100143.06;;;7.16;95.40
74370;BME280;71062;44.520;11.342;2024-02-26T07:00:58;100153.56;;;7.56;93.89
74370;BME280;71062;44.520;11.342;2024-02-26T07:03:24;100152.72;;;7.55;94.35
74370;BME280;71062;44.520;11.342;2024-02-26T07:05:51;100150.97;;;7.29;95.30
74370;BME280;71062;44.520;11.342;2024-02-26T07:08:17;100162.16;;;7.34;96.40
74370;BME280;71062;44.520;11.342;2024-02-26T07:10:43;100157.69;;;7.38;94.73
74370;BME280;71062;44.520;11.342;2024-02-26T07:13:09;100168.16;;;7.68;93.73
74370;BME280;71062;44.520;11.342;2024-02-26T07:15:34;100156.97;;;7.68;92.63
74370;BME280;71062;44.520;11.342;2024-02-26T07:18:00;100130.28;;;7.35;95.60
74370;BME280;71062;44.520;11.342;2024-02-26T07:20:31;100166.69;;;7.50;94.30
74370;BME280;71062;44.520;11.342;2024-02-26T07:22:57;100165.81;;;7.40;94.37
74370;BME280;71062;44.520;11.342;2024-02-26T07:25:23;100175.72;;;7.72;93.14
74370;BME280;71062;44.520;11.342;2024-02-26T07:27:50;100167.28;;;7.57;94.75
74370;BME280;71062;44.520;11.342;2024-02-26T07:30:16;100167.78;;;7.44;93.45
74370;BME280;71062;44.520;11.342;2024-02-26T07:32:42;100182.38;;;7.66;93.25
74370;BME280;71062;44.520;11.342;2024-02-26T07:35:08;100165.03;;;7.59;94.04
74370;BME280;71062;44.520;11.342;2024-02-26T07:37:34;100158.91;;;7.67;92.83
74370;BME280;71062;44.520;11.342;2024-02-26T07:40:00;100142.06;;;7.52;93.34
74370;BME280;71062;44.520;11.342;2024-02-26T07:42:25;100146.50;;;7.38;96.58
74370;BME280;71062;44.520;11.342;2024-02-26T07:44:51;100162.22;;;7.49;96.46
74370;BME280;71062;44.520;11.342;2024-02-26T07:47:18;100171.75;;;7.58;94.83
74370;BME280;71062;44.520;11.342;2024-02-26T07:49:44;100167.00;;;7.54;97.84
74370;BME280;71062;44.520;11.342;2024-02-26T07:52:10;100174.56;;;7.68;94.99
74370;BME280;71062;44.520;11.342;2024-02-26T07:54:37;100159.50;;;7.74;96.66
74370;BME280;71062;44.520;11.342;2024-02-26T07:57:02;100162.31;;;7.89;93.13
74370;BME280;71062;44.520;11.342;2024-02-26T07:59:31;100160.94;;;8.07;90.62
74370;BME280;71062;44.520;11.342;2024-02-26T08:01:56;100178.28;;;8.04;92.24
74370;BME280;71062;44.520;11.342;2024-02-26T08:04:22;100163.16;;;8.00;93.73
74370;BME280;71062;44.520;11.342;2024-02-26T08:06:47;100158.72;;;8.09;95.18
74370;BME280;71062;44.520;11.342;2024-02-26T08:09:13;100152.81;;;7.96;97.13
74370;BME280;71062;44.520;11.342;2024-02-26T08:11:39;100136.06;;;8.26;95.75
74370;BME280;71062;44.520;11.342;2024-02-26T08:14:05;100141.63;;;8.06;96.61
74370;BME280;71062;44.520;11.342;2024-02-26T08:16:30;100135.75;;;8.12;97.35
74370;BME280;71062;44.520;11.342;2024-02-26T08:18:56;100130.72;;;8.19;97.11
74370;BME280;71062;44.520;11.342;2024-02-26T08:21:21;100137.16;;;8.20;96.90
74370;BME280;71062;44.520;11.342;2024-02-26T08:23:47;100125.97;;;8.15;97.05
74370;BME280;71062;44.520;11.342;2024-02-26T08:26:12;100121.50;;;8.19;96.28
74370;BME280;71062;44.520;11.342;2024-02-26T08:28:38;100118.72;;;8.29;98.46
74370;BME280;71062;44.520;11.342;2024-02-26T08:31:04;100115.88;;;8.14;99.52
74370;BME280;71062;44.520;11.342;2024-02-26T08:33:30;100112.00;;;8.25;99.63
74370;BME280;71062;44.520;11.342;2024-02-26T08:35:56;100112.53;;;8.32;99.67
74370;BME280;71062;44.520;11.342;2024-02-26T08:38:22;100122.59;;;8.58;96.11
74370;BME280;71062;44.520;11.342;2024-02-26T08:40:48;100101.06;;;8.53;95.36
74370;BME280;71062;44.520;11.342;2024-02-26T08:43:13;100105.81;;;8.48;94.93
74370;BME280;71062;44.520;11.342;2024-02-26T08:45:39;100104.44;;;8.35;94.61
74370;BME280;71062;44.520;11.342;2024-02-26T08:48:05;100080.91;;;8.31;94.56
74370;BME280;71062;44.520;11.342;2024-02-26T08:50:30;100086.22;;;8.43;92.90
74370;BME280;71062;44.520;11.342;2024-02-26T08:52:56;100080.28;;;8.59;92.74
74370;BME280;71062;44.520;11.342;2024-02-26T08:55:21;100086.53;;;9.20;92.44
74370;BME280;71062;44.520;11.342;2024-02-26T08:57:47;100087.81;;;9.38;89.22
74370;BME280;71062;44.520;11.342;2024-02-26T09:00:13;100091.97;;;9.50;88.07
74370;BME280;71062;44.520;11.342;2024-02-26T09:02:41;100081.31;;;9.52;88.90
74370;BME280;71062;44.520;11.342;2024-02-26T09:05:09;100073.47;;;9.49;89.20
74370;BME280;71062;44.520;11.342;2024-02-26T09:07:35;100083.78;;;9.59;87.87
74370;BME280;71062;44.520;11.342;2024-02-26T09:10:00;100074.50;;;9.63;86.16
74370;BME280;71062;44.520;11.342;2024-02-26T09:12:26;100083.44;;;9.70;86.74
74370;BME280;71062;44.520;11.342;2024-02-26T09:14:51;100091.34;;;9.63;85.17
74370;BME280;71062;44.520;11.342;2024-02-26T09:17:17;100081.91;;;9.44;87.87
74370;BME280;71062;44.520;11.342;2024-02-26T09:19:43;100092.09;;;9.30;91.26
74370;BME280;71062;44.520;11.342;2024-02-26T09:22:09;100115.13;;;9.17;92.91
74370;BME280;71062;44.520;11.342;2024-02-26T09:24:36;100098.94;;;8.94;93.46
74370;BME280;71062;44.520;11.342;2024-02-26T09:27:01;100115.50;;;8.90;91.58
74370;BME280;71062;44.520;11.342;2024-02-26T09:29:27;100112.44;;;8.87;90.25
74370;BME280;71062;44.520;11.342;2024-02-26T09:31:53;100109.56;;;9.07;88.48
74370;BME280;71062;44.520;11.342;2024-02-26T09:34:18;100105.88;;;9.22;87.51
74370;BME280;71062;44.520;11.342;2024-02-26T09:36:44;100103.63;;;9.19;86.94
74370;BME280;71062;44.520;11.342;2024-02-26T09:39:09;100115.06;;;9.37;83.83
74370;BME280;71062;44.520;11.342;2024-02-26T09:41:37;100126.25;;;9.42;83.29
74370;BME280;71062;44.520;11.342;2024-02-26T09:44:05;100083.91;;;9.39;82.94
74370;BME280;71062;44.520;11.342;2024-02-26T09:46:31;100104.88;;;9.51;82.28
74370;BME280;71062;44.520;11.342;2024-02-26T09:48:57;100093.00;;;9.64;82.01
74370;BME280;71062;44.520;11.342;2024-02-26T09:51:23;100090.38;;;9.83;81.29
74370;BME280;71062;44.520;11.342;2024-02-26T09:53:52;100082.72;;;9.93;79.14
74370;BME280;71062;44.520;11.342;2024-02-26T09:56:19;100088.28;;;9.98;78.71
74370;BME280;71062;44.520;11.342;2024-02-26T09:58:45;100080.16;;;9.97;78.35
74370;BME280;71062;44.520;11.342;2024-02-26T10:01:18;100080.31;;;10.16;78.67
74370;BME280;71062;44.520;11.342;2024-02-26T10:03:44;100088.72;;;10.16;77.04
74370;BME280;71062;44.520;11.342;2024-02-26T10:06:13;100082.50;;;10.19;77.87
74370;BME280;71062;44.520;11.342;2024-02-26T10:08:40;100091.59;;;10.10;78.78
74370;BME280;71062;44.520;11.342;2024-02-26T10:11:08;100085.28;;;10.24;79.08
74370;BME280;71062;44.520;11.342;2024-02-26T10:13:35;100093.19;;;10.22;79.78
74370;BME280;71062;44.520;11.342;2024-02-26T10:16:02;100082.25;;;10.15;78.29
74370;BME280;71062;44.520;11.342;2024-02-26T10:21:13;100077.91;;;10.33;79.12
74370;BME280;71062;44.520;11.342;2024-02-26T10:23:39;100084.66;;;10.32;78.06
74370;BME280;71062;44.520;11.342;2024-02-26T10:26:05;100079.59;;;10.34;77.21
74370;BME280;71062;44.520;11.342;2024-02-26T10:28:30;100087.81;;;10.25;78.53
74370;BME280;71062;44.520;11.342;2024-02-26T10:30:56;100080.25;;;10.21;78.98
74370;BME280;71062;44.520;11.342;2024-02-26T10:33:22;100079.16;;;10.17;79.72
74370;BME280;71062;44.520;11.342;2024-02-26T10:35:48;100096.50;;;10.24;79.68
74370;BME280;71062;44.520;11.342;2024-02-26T10:38:14;100086.88;;;10.35;79.51
74370;BME280;71062;44.520;11.342;2024-02-26T10:40:42;100069.44;;;10.04;80.23
74370;BME280;71062;44.520;11.342;2024-02-26T10:43:08;100081.47;;;10.04;80.96
74370;BME280;71062;44.520;11.342;2024-02-26T10:45:33;100080.41;;;10.00;81.27
74370;BME280;71062;44.520;11.342;2024-02-26T10:48:00;100087.94;;;10.10;80.99
74370;BME280;71062;44.520;11.342;2024-02-26T10:50:26;100073.41;;;9.98;80.97
74370;BME280;71062;44.520;11.342;2024-02-26T10:52:52;100087.09;;;10.04;82.97
74370;BME280;71062;44.520;11.342;2024-02-26T10:55:21;100088.22;;;10.08;82.08
74370;BME280;71062;44.520;11.342;2024-02-26T10:57:49;100068.09;;;9.96;82.55
74370;BME280;71062;44.520;11.342;2024-02-26T11:00:17;100065.81;;;9.98;82.00
74370;BME280;71062;44.520;11.342;2024-02-26T11:02:44;100063.56;;;10.00;82.13
74370;BME280;71062;44.520;11.342;2024-02-26T11:05:11;100067.50;;;9.99;81.09
74370;BME280;71062;44.520;11.342;2024-02-26T11:07:37;100066.97;;;9.92;81.20
74370;BME280;71062;44.520;11.342;2024-02-26T11:10:04;100067.50;;;9.99;80.92
74370;BME280;71062;44.520;11.342;2024-02-26T11:12:32;100071.03;;;10.15;81.70
74370;BME280;71062;44.520;11.342;2024-02-26T11:15:03;100065.16;;;10.11;82.10
74370;BME280;71062;44.520;11.342;2024-02-26T11:17:30;100059.28;;;10.08;83.06
74370;BME280;71062;44.520;11.342;2024-02-26T11:19:58;100064.63;;;10.04;84.22
74370;BME280;71062;44.520;11.342;2024-02-26T11:22:25;100058.94;;;10.20;84.20
74370;BME280;71062;44.520;11.342;2024-02-26T11:24:53;100059.44;;;10.27;85.00
74370;BME280;71062;44.520;11.342;2024-02-26T11:27:24;100059.47;;;10.22;85.51
74370;BME280;71062;44.520;11.342;2024-02-26T11:29:52;100055.53;;;10.23;85.88
74370;BME280;71062;44.520;11.342;2024-02-26T11:32:19;100048.91;;;10.08;87.62
74370;BME280;71062;44.520;11.342;2024-02-26T11:34:45;100043.81;;;10.16;89.08
74370;BME280;71062;44.520;11.342;2024-02-26T11:37:13;100033.19;;;10.02;89.91
74370;BME280;71062;44.520;11.342;2024-02-26T11:39:42;100046.72;;;10.00;91.26
74370;BME280;71062;44.520;11.342;2024-02-26T11:42:14;100045.59;;;10.01;91.31
74370;BME280;71062;44.520;11.342;2024-02-26T11:44:40;100044.41;;;10.07;90.53
74370;BME280;71062;44.520;11.342;2024-02-26T11:47:14;100047.75;;;10.15;90.95
74370;BME280;71062;44.520;11.342;2024-02-26T11:49:43;100041.03;;;10.10;89.45
74370;BME280;71062;44.520;11.342;2024-02-26T11:52:10;100041.66;;;9.97;91.54
74370;BME280;71062;44.520;11.342;2024-02-26T11:54:52;100041.09;;;10.00;92.83
74370;BME280;71062;44.520;11.342;2024-02-26T11:57:26;100038.81;;;10.02;91.55
74370;BME280;71062;44.520;11.342;2024-02-26T11:59:54;100043.31;;;10.08;91.66
74370;BME280;71062;44.520;11.342;2024-02-26T12:02:46;100037.09;;;10.11;92.40
74370;BME280;71062;44.520;11.342;2024-02-26T12:05:20;100043.19;;;10.19;92.97
74370;BME280;71062;44.520;11.342;2024-02-26T12:07:47;100038.03;;;10.31;92.14
74370;BME280;71062;44.520;11.342;2024-02-26T12:10:37;100033.56;;;10.30;93.01
74370;BME280;71062;44.520;11.342;2024-02-26T12:13:29;100034.66;;;10.34;94.46
74370;BME280;71062;44.520;11.342;2024-02-26T12:15:56;100021.47;;;10.29;95.48
74370;BME280;71062;44.520;11.342;2024-02-26T12:18:23;100025.69;;;10.32;96.79
74370;BME280;71062;44.520;11.342;2024-02-26T12:20:59;100030.19;;;10.28;98.10
74370;BME280;71062;44.520;11.342;2024-02-26T12:23:26;100042.47;;;10.37;100.00
74370;BME280;71062;44.520;11.342;2024-02-26T12:25:52;100036.81;;;10.42;100.00
74370;BME280;71062;44.520;11.342;2024-02-26T12:28:18;100026.72;;;10.41;100.00
74370;BME280;71062;44.520;11.342;2024-02-26T12:30:44;100037.66;;;10.42;100.00
74370;BME280;71062;44.520;11.342;2024-02-26T12:33:09;100009.31;;;10.39;100.00
74370;BME280;71062;44.520;11.342;2024-02-26T12:35:35;100030.50;;;10.55;100.00
74370;BME280;71062;44.520;11.342;2024-02-26T12:38:01;100026.06;;;10.49;100.00
74370;BME280;71062;44.520;11.342;2024-02-26T12:40:29;100021.75;;;10.56;100.00
74370;BME280;71062;44.520;11.342;2024-02-26T12:42:55;100018.78;;;10.48;100.00
74370;BME280;71062;44.520;11.342;2024-02-26T12:45:21;100017.03;;;10.52;100.00
74370;BME280;71062;44.520;11.342;2024-02-26T12:47:47;100017.63;;;10.49;100.00